createdAt,value
2018-05-10T00:01:01.326Z,14.71
2018-05-10T00:03:31.055Z,14.65
2018-05-10T00:06:00.395Z,14.50
2018-05-10T00:08:31.823Z,14.63
2018-05-10T00:11:01.209Z,14.59
2018-05-10T00:13:30.347Z,14.54
2018-05-10T00:16:01.319Z,14.50
2018-05-10T00:18:31.012Z,14.52
2018-05-10T00:21:00.189Z,14.55
2018-05-10T00:23:31.564Z,14.60
2018-05-10T00:26:02.444Z,14.43
2018-05-10T00:28:33.179Z,14.45
2018-05-10T00:31:03.507Z,14.34
2018-05-10T00:33:34.207Z,14.39
2018-05-10T00:36:05.974Z,14.38
2018-05-10T00:38:38.443Z,14.27
2018-05-10T00:41:08.405Z,14.12
2018-05-10T00:43:39.258Z,14.09
2018-05-10T00:46:08.744Z,14.03
2018-05-10T00:48:40.219Z,14.12
2018-05-10T00:51:11.243Z,13.98
2018-05-10T00:53:42.292Z,13.95
2018-05-10T00:56:13.238Z,14.06
2018-05-10T00:58:43.907Z,13.94
2018-05-10T01:01:14.739Z,13.98
2018-05-10T01:03:44.697Z,14.21
2018-05-10T01:06:15.181Z,14.18
2018-05-10T01:08:46.635Z,14.13
2018-05-10T01:11:15.675Z,14.06
2018-05-10T01:13:46.365Z,14.23
2018-05-10T01:16:17.553Z,14.29
2018-05-10T01:18:46.577Z,14.33
2018-05-10T01:21:17.660Z,14.35
2018-05-10T01:23:49.117Z,14.43
2018-05-10T01:26:18.605Z,14.46
2018-05-10T01:28:49.451Z,14.35
2018-05-10T01:31:20.822Z,14.19
2018-05-10T01:33:49.975Z,14.17
2018-05-10T01:36:22.045Z,14.23
2018-05-10T01:38:52.467Z,14.37
2018-05-10T01:41:23.394Z,14.56
2018-05-10T01:43:52.934Z,14.34
2018-05-10T01:46:22.014Z,14.40
2018-05-10T01:48:53.068Z,14.43
2018-05-10T01:51:22.193Z,14.31
2018-05-10T01:53:52.996Z,14.20
2018-05-10T01:56:24.101Z,14.31
2018-05-10T01:58:53.786Z,14.38
2018-05-10T02:01:23.473Z,14.37
2018-05-10T02:03:54.504Z,14.37
2018-05-10T02:06:25.411Z,14.41
2018-05-10T02:08:56.407Z,14.50
2018-05-10T02:11:27.920Z,14.38
2018-05-10T02:13:58.222Z,14.41
2018-05-10T02:16:28.267Z,14.26
2018-05-10T02:18:59.237Z,14.34
2018-05-10T02:21:28.132Z,14.30
2018-05-10T02:23:57.498Z,14.32
2018-05-10T02:26:26.745Z,14.20
2018-05-10T02:28:57.703Z,14.25
2018-05-10T02:31:27.376Z,14.21
2018-05-10T02:33:58.948Z,14.37
2018-05-10T02:36:30.665Z,14.27
2018-05-10T02:39:01.530Z,14.30
2018-05-10T02:41:32.832Z,14.22
2018-05-10T02:44:02.245Z,14.24
2018-05-10T02:46:31.628Z,14.06
2018-05-10T02:49:02.480Z,14.21
2018-05-10T02:51:31.950Z,14.37
2018-05-10T02:54:01.224Z,14.34
2018-05-10T02:56:32.207Z,14.43
2018-05-10T02:59:01.860Z,14.34
2018-05-10T03:01:34.131Z,14.57
2018-05-10T03:04:05.378Z,14.40
2018-05-10T03:06:34.651Z,14.38
2018-05-10T03:09:05.509Z,14.42
2018-05-10T03:11:37.137Z,14.35
2018-05-10T03:14:07.839Z,14.45
2018-05-10T03:16:37.240Z,14.34
2018-05-10T03:19:09.732Z,14.55
2018-05-10T03:21:39.132Z,14.45
2018-05-10T03:24:10.098Z,14.53
2018-05-10T03:26:41.233Z,14.49
2018-05-10T03:29:12.619Z,14.65
2018-05-10T03:31:43.526Z,14.33
2018-05-10T03:34:12.880Z,14.24
2018-05-10T03:36:42.740Z,14.34
2018-05-10T03:39:11.964Z,14.31
2018-05-10T03:41:43.460Z,14.03
2018-05-10T03:44:14.314Z,14.20
2018-05-10T03:46:46.278Z,14.19
2018-05-10T03:49:17.385Z,14.16
2018-05-10T03:51:47.380Z,14.12
2018-05-10T03:54:17.071Z,14.07
2018-05-10T03:56:46.238Z,14.10
2018-05-10T03:59:17.353Z,13.87
2018-05-10T04:01:46.526Z,13.90
2018-05-10T04:04:57.965Z,13.75
2018-05-10T04:08:04.695Z,13.60
2018-05-10T04:11:21.818Z,13.71
2018-05-10T04:13:52.928Z,13.71
2018-05-10T04:16:25.063Z,13.87
2018-05-10T04:18:56.216Z,13.66
2018-05-10T04:21:26.638Z,13.74
2018-05-10T04:23:56.348Z,13.76
2018-05-10T04:26:27.093Z,13.75
2018-05-10T04:28:56.805Z,13.67
2018-05-10T04:31:27.747Z,13.66
2018-05-10T04:33:57.149Z,13.76
2018-05-10T04:36:27.185Z,13.81
2018-05-10T04:38:57.137Z,13.78
2018-05-10T04:41:28.155Z,13.60
2018-05-10T04:44:00.275Z,13.70
2018-05-10T04:46:29.346Z,13.75
2018-05-10T04:48:59.134Z,13.59
2018-05-10T04:51:29.106Z,13.53
2018-05-10T04:54:00.171Z,13.59
2018-05-10T04:56:31.242Z,13.55
2018-05-10T04:59:00.292Z,13.68
2018-05-10T05:01:29.531Z,13.76
2018-05-10T05:04:00.624Z,13.82
2018-05-10T05:06:30.439Z,13.64
2018-05-10T05:08:59.685Z,13.74
2018-05-10T05:11:29.201Z,13.73
2018-05-10T05:13:59.932Z,13.74
2018-05-10T05:16:31.024Z,13.81
2018-05-10T05:19:01.050Z,13.89
2018-05-10T05:21:30.610Z,13.87
2018-05-10T05:24:01.889Z,13.79
2018-05-10T05:26:32.230Z,13.86
2018-05-10T05:29:03.260Z,13.88
2018-05-10T05:31:32.573Z,13.74
2018-05-10T05:34:03.225Z,13.79
2018-05-10T05:36:32.655Z,13.94
2018-05-10T05:39:03.093Z,14.04
2018-05-10T05:41:34.248Z,14.11
2018-05-10T05:44:06.412Z,13.79
2018-05-10T05:46:36.881Z,13.91
2018-05-10T05:49:07.541Z,13.96
2018-05-10T05:51:39.651Z,13.55
2018-05-10T05:54:08.986Z,13.79
2018-05-10T05:56:40.892Z,13.79
2018-05-10T05:59:12.395Z,13.79
2018-05-10T06:01:43.252Z,13.71
2018-05-10T06:04:14.716Z,13.77
2018-05-10T06:06:44.480Z,13.87
2018-05-10T06:09:15.262Z,13.87
2018-05-10T06:11:44.533Z,13.84
2018-05-10T06:14:15.219Z,13.92
2018-05-10T06:16:45.088Z,13.86
2018-05-10T06:19:14.473Z,13.67
2018-05-10T06:21:45.421Z,13.42
2018-05-10T06:24:16.313Z,13.48
2018-05-10T06:26:47.496Z,13.48
2018-05-10T06:29:17.002Z,13.38
2018-05-10T06:31:47.967Z,13.38
2018-05-10T06:34:17.622Z,13.33
2018-05-10T06:36:46.790Z,13.26
2018-05-10T06:39:17.043Z,13.21
2018-05-10T06:41:46.073Z,13.25
2018-05-10T06:44:16.952Z,13.14
2018-05-10T06:46:47.789Z,13.04
2018-05-10T06:49:18.024Z,12.94
2018-05-10T06:51:48.881Z,13.22
2018-05-10T06:54:18.404Z,13.15
2018-05-10T06:56:48.385Z,13.03
2018-05-10T06:59:17.706Z,13.07
2018-05-10T07:01:47.414Z,12.96
2018-05-10T07:04:18.489Z,13.07
2018-05-10T07:06:48.456Z,13.08
2018-05-10T07:09:19.051Z,13.03
2018-05-10T07:11:49.961Z,12.84
2018-05-10T07:14:21.125Z,12.97
2018-05-10T07:16:51.030Z,13.13
2018-05-10T07:19:20.491Z,13.07
2018-05-10T07:21:49.923Z,13.15
2018-05-10T07:24:21.359Z,13.21
2018-05-10T07:26:50.839Z,12.96
2018-05-10T07:29:22.342Z,13.29
2018-05-10T07:31:53.036Z,13.32
2018-05-10T07:34:24.356Z,13.21
2018-05-10T07:36:53.819Z,13.28
2018-05-10T07:39:24.747Z,13.34
2018-05-10T07:41:54.094Z,13.48
2018-05-10T07:44:24.440Z,13.52
2018-05-10T07:46:55.399Z,13.39
2018-05-10T07:49:25.126Z,13.27
2018-05-10T07:51:54.640Z,13.15
2018-05-10T07:54:24.036Z,13.37
2018-05-10T07:56:55.944Z,13.35
2018-05-10T07:59:27.510Z,13.29
2018-05-10T08:01:57.232Z,13.54
2018-05-10T08:04:28.171Z,13.73
2018-05-10T08:06:59.044Z,13.55
2018-05-10T08:09:29.424Z,13.92
2018-05-10T08:12:00.889Z,13.80
2018-05-10T08:14:30.095Z,13.88
2018-05-10T08:17:01.318Z,14.22
2018-05-10T08:19:32.014Z,14.28
2018-05-10T08:22:02.924Z,14.13
2018-05-10T08:24:33.876Z,14.07
2018-05-10T08:27:03.500Z,14.41
2018-05-10T08:29:34.881Z,14.51
2018-05-10T08:32:04.821Z,14.28
2018-05-10T08:34:36.427Z,14.08
2018-05-10T08:37:05.520Z,14.13
2018-05-10T08:39:35.425Z,14.18
2018-05-10T08:42:07.107Z,14.17
2018-05-10T08:44:39.202Z,14.52
2018-05-10T08:47:10.087Z,14.69
2018-05-10T08:49:41.150Z,15.11
2018-05-10T08:52:11.827Z,14.84
2018-05-10T08:54:42.252Z,14.88
2018-05-10T08:57:13.579Z,14.89
2018-05-10T08:59:42.990Z,14.88
2018-05-10T09:02:13.705Z,14.61
2018-05-10T09:04:42.977Z,14.88
2018-05-10T09:07:14.901Z,14.75
2018-05-10T09:09:44.618Z,14.63
2018-05-10T09:12:16.295Z,14.64
2018-05-10T09:14:45.384Z,14.86
2018-05-10T09:17:15.862Z,15.07
2018-05-10T09:19:45.099Z,15.02
2018-05-10T09:22:14.446Z,15.14
2018-05-10T09:24:44.212Z,15.26
2018-05-10T09:27:14.266Z,15.13
2018-05-10T09:29:44.986Z,15.46
2018-05-10T09:32:15.625Z,15.45
2018-05-10T09:34:45.770Z,15.49
2018-05-10T09:37:16.775Z,15.73
2018-05-10T09:39:46.351Z,15.93
2018-05-10T09:42:15.808Z,15.96
2018-05-10T09:44:46.745Z,15.76
2018-05-10T09:47:17.588Z,15.82
2018-05-10T09:49:47.450Z,15.53
2018-05-10T09:52:17.314Z,15.30
2018-05-10T09:54:47.163Z,15.36
2018-05-10T09:57:18.651Z,15.36
2018-05-10T09:59:49.604Z,15.19
2018-05-10T10:02:18.669Z,15.36
2018-05-10T10:04:50.111Z,15.52
2018-05-10T10:07:19.991Z,15.68
2018-05-10T10:09:51.176Z,15.67
2018-05-10T10:12:22.034Z,15.88
2018-05-10T10:14:52.389Z,16.04
2018-05-10T10:17:23.254Z,16.18
2018-05-10T10:19:53.962Z,16.04
2018-05-10T10:22:24.764Z,16.11
2018-05-10T10:24:54.038Z,16.23
2018-05-10T10:27:24.952Z,16.71
2018-05-10T10:29:56.014Z,16.39
2018-05-10T10:32:27.244Z,16.77
2018-05-10T10:34:58.212Z,16.78
2018-05-10T10:37:27.575Z,16.75
2018-05-10T10:39:58.549Z,17.04
2018-05-10T10:42:27.618Z,16.62
2018-05-10T10:44:56.998Z,16.58
2018-05-10T10:47:26.566Z,16.54
2018-05-10T10:49:56.255Z,16.45
2018-05-10T10:52:25.913Z,16.81
2018-05-10T10:54:54.953Z,17.16
2018-05-10T10:57:24.338Z,17.69
2018-05-10T10:59:53.539Z,17.95
2018-05-10T11:02:24.315Z,17.50
2018-05-10T11:04:55.143Z,17.35
2018-05-10T11:07:24.696Z,17.38
2018-05-10T11:09:53.796Z,17.91
2018-05-10T11:12:23.252Z,17.83
2018-05-10T11:14:54.232Z,18.32
2018-05-10T11:17:23.534Z,18.98
2018-05-10T11:19:54.455Z,19.08
2018-05-10T11:22:25.862Z,19.07
2018-05-10T11:24:56.200Z,18.79
2018-05-10T11:27:25.605Z,18.33
2018-05-10T11:29:56.475Z,18.78
2018-05-10T11:32:27.213Z,19.11
2018-05-10T11:34:58.715Z,19.15
2018-05-10T11:37:29.509Z,18.65
2018-05-10T11:39:58.670Z,18.59
2018-05-10T11:42:27.947Z,18.81
2018-05-10T11:44:58.705Z,18.86
2018-05-10T11:47:29.582Z,18.85
2018-05-10T11:50:00.826Z,18.24
2018-05-10T11:52:29.996Z,18.70
2018-05-10T11:54:59.811Z,18.57
2018-05-10T11:57:30.582Z,19.00
2018-05-10T11:59:59.927Z,18.87
2018-05-10T12:02:28.982Z,18.64
2018-05-10T12:05:00.008Z,19.00
2018-05-10T12:07:31.828Z,19.55
2018-05-10T12:10:00.999Z,19.68
2018-05-10T12:12:32.216Z,18.92
2018-05-10T12:15:02.170Z,18.71
2018-05-10T12:17:32.020Z,19.22
2018-05-10T12:20:02.862Z,19.03
2018-05-10T12:22:31.879Z,18.24
2018-05-10T12:25:01.716Z,18.64
2018-05-10T12:27:30.880Z,18.70
2018-05-10T12:30:01.416Z,18.76
2018-05-10T12:32:31.309Z,18.42
2018-05-10T12:35:00.212Z,18.47
2018-05-10T12:37:29.623Z,18.41
2018-05-10T12:40:00.715Z,18.84
2018-05-10T12:42:30.806Z,19.08
2018-05-10T12:45:01.701Z,19.71
2018-05-10T12:47:30.862Z,19.02
2018-05-10T12:50:02.375Z,18.40
2018-05-10T12:52:31.834Z,18.98
2018-05-10T12:55:02.613Z,19.37
2018-05-10T12:57:33.330Z,19.12
2018-05-10T13:00:05.704Z,19.19
2018-05-10T13:02:36.952Z,19.28
2018-05-10T13:05:07.610Z,20.19
2018-05-10T13:07:36.687Z,20.80
2018-05-10T13:10:07.738Z,19.90
2018-05-10T13:12:38.677Z,20.39
2018-05-10T13:15:09.794Z,20.44
2018-05-10T13:17:38.926Z,20.74
2018-05-10T13:20:08.350Z,20.76
2018-05-10T13:22:39.023Z,20.43
2018-05-10T13:25:08.370Z,19.51
2018-05-10T13:27:38.385Z,19.75
2018-05-10T13:30:08.401Z,19.60
2018-05-10T13:32:38.980Z,19.39
2018-05-10T13:35:08.355Z,19.86
2018-05-10T13:37:38.212Z,20.22
2018-05-10T13:40:08.129Z,19.42
2018-05-10T13:42:37.552Z,19.18
2018-05-10T13:45:08.455Z,18.70
2018-05-10T13:47:39.941Z,18.88
2018-05-10T13:50:11.105Z,18.30
2018-05-10T13:52:41.074Z,18.27
2018-05-10T13:55:11.828Z,18.00
2018-05-10T13:57:42.451Z,18.06
2018-05-10T14:00:11.813Z,18.81
2018-05-10T14:02:42.875Z,18.57
2018-05-10T14:05:14.328Z,18.34
2018-05-10T14:07:45.541Z,19.04
2018-05-10T14:10:14.559Z,19.20
2018-05-10T14:12:45.575Z,19.04
2018-05-10T14:15:16.907Z,18.59
2018-05-10T14:17:46.262Z,18.74
2018-05-10T14:20:17.447Z,18.18
2018-05-10T14:22:47.120Z,17.71
2018-05-10T14:25:17.890Z,18.17
2018-05-10T14:27:48.747Z,18.78
2018-05-10T14:30:19.683Z,18.08
2018-05-10T14:32:50.426Z,18.06
2018-05-10T14:35:21.394Z,18.09
2018-05-10T14:37:51.316Z,18.08
2018-05-10T14:40:21.210Z,18.55
2018-05-10T14:42:52.602Z,18.64
2018-05-10T14:45:22.236Z,18.62
2018-05-10T14:47:52.046Z,18.45
2018-05-10T14:50:23.903Z,18.83
2018-05-10T14:52:54.401Z,18.89
2018-05-10T14:55:24.831Z,18.79
2018-05-10T14:57:55.695Z,18.25
2018-05-10T15:00:25.419Z,18.79
2018-05-10T15:02:56.152Z,18.89
2018-05-10T15:05:25.866Z,19.62
2018-05-10T15:07:55.298Z,19.24
2018-05-10T15:10:26.205Z,19.35
2018-05-10T15:12:57.584Z,19.36
2018-05-10T15:15:28.491Z,19.28
2018-05-10T15:17:59.553Z,18.89
2018-05-10T15:20:30.530Z,18.27
2018-05-10T15:23:00.131Z,18.09
2018-05-10T15:25:30.582Z,18.23
2018-05-10T15:28:01.811Z,18.57
2018-05-10T15:30:32.172Z,18.50
2018-05-10T15:33:02.826Z,18.15
2018-05-10T15:35:33.918Z,18.32
2018-05-10T15:38:03.290Z,18.52
2018-05-10T15:40:33.737Z,18.75
2018-05-10T15:43:03.251Z,18.95
2018-05-10T15:45:35.191Z,18.99
2018-05-10T15:48:06.071Z,18.60
2018-05-10T15:50:36.083Z,18.72
2018-05-10T15:53:06.767Z,18.28
2018-05-10T15:55:36.143Z,18.51
2018-05-10T15:58:06.963Z,18.38
2018-05-10T16:00:36.022Z,18.08
2018-05-10T16:03:08.124Z,18.00
2018-05-10T16:05:39.568Z,18.17
2018-05-10T16:08:10.453Z,17.80
2018-05-10T16:10:41.073Z,17.70
2018-05-10T16:13:12.576Z,17.70
2018-05-10T16:15:44.459Z,17.64
2018-05-10T16:18:15.232Z,17.69
2018-05-10T16:20:44.370Z,17.47
2018-05-10T16:23:15.267Z,17.15
2018-05-10T16:25:44.375Z,17.00
2018-05-10T16:28:13.922Z,16.88
2018-05-10T16:30:43.083Z,16.98
2018-05-10T16:33:13.996Z,17.20
2018-05-10T16:35:43.106Z,17.00
2018-05-10T16:38:14.044Z,17.12
2018-05-10T16:40:45.496Z,16.86
2018-05-10T16:43:16.984Z,16.51
2018-05-10T16:45:46.095Z,16.56
2018-05-10T16:48:17.614Z,16.44
2018-05-10T16:50:49.664Z,16.29
2018-05-10T16:53:19.010Z,15.46
2018-05-10T16:55:49.687Z,15.38
2018-05-10T16:58:18.885Z,15.62
2018-05-10T17:00:48.820Z,15.56
2018-05-10T17:03:19.447Z,15.96
2018-05-10T17:05:49.185Z,15.73
2018-05-10T17:08:20.194Z,15.52
2018-05-10T17:10:49.610Z,15.67
2018-05-10T17:13:19.068Z,15.85
2018-05-10T17:15:48.373Z,15.81
2018-05-10T17:18:17.699Z,15.99
2018-05-10T17:20:48.662Z,15.91
2018-05-10T17:23:19.384Z,15.68
2018-05-10T17:25:50.500Z,16.01
2018-05-10T17:28:21.518Z,15.68
2018-05-10T17:30:52.167Z,15.61
2018-05-10T17:33:25.498Z,15.50
2018-05-10T17:35:55.257Z,15.04
2018-05-10T17:38:24.601Z,15.28
2018-05-10T17:40:55.407Z,15.09
2018-05-10T17:43:25.842Z,15.01
2018-05-10T17:45:55.698Z,14.93
2018-05-10T17:48:26.441Z,14.80
2018-05-10T17:50:57.651Z,14.91
2018-05-10T17:53:28.956Z,15.11
2018-05-10T17:55:59.656Z,14.95
2018-05-10T17:58:31.002Z,14.80
2018-05-10T18:01:01.745Z,14.42
2018-05-10T18:03:32.346Z,14.26
2018-05-10T18:06:03.309Z,14.28
2018-05-10T18:08:32.662Z,14.26
2018-05-10T18:11:03.930Z,13.90
2018-05-10T18:13:33.396Z,14.04
2018-05-10T18:16:02.715Z,14.00
2018-05-10T18:18:33.378Z,13.88
2018-05-10T18:21:04.012Z,13.99
2018-05-10T18:23:33.929Z,13.80
2018-05-10T18:26:04.731Z,13.80
2018-05-10T18:28:35.977Z,13.79
2018-05-10T18:31:06.894Z,13.73
2018-05-10T18:33:37.723Z,13.69
2018-05-10T18:36:08.910Z,13.52
2018-05-10T18:38:38.337Z,13.73
2018-05-10T18:41:07.424Z,13.66
2018-05-10T18:43:36.851Z,13.72
2018-05-10T18:46:05.941Z,13.55
2018-05-10T18:48:37.418Z,13.52
2018-05-10T18:51:08.327Z,13.45
2018-05-10T18:53:37.543Z,13.46
2018-05-10T18:56:06.922Z,13.29
2018-05-10T18:58:36.342Z,13.52
2018-05-10T19:01:06.079Z,13.48
2018-05-10T19:03:36.889Z,13.35
2018-05-10T19:06:08.449Z,13.27
2018-05-10T19:08:39.375Z,13.37
2018-05-10T19:11:10.764Z,13.03
2018-05-10T19:13:40.702Z,13.16
2018-05-10T19:16:10.163Z,13.09
2018-05-10T19:18:40.961Z,12.92
2018-05-10T19:21:10.996Z,12.92
2018-05-10T19:23:40.728Z,12.82
2018-05-10T19:26:12.211Z,12.56
2018-05-10T19:28:42.240Z,12.50
2018-05-10T19:31:12.254Z,12.35
2018-05-10T19:33:43.232Z,12.44
2018-05-10T19:36:14.041Z,12.45
2018-05-10T19:38:43.818Z,12.19
2018-05-10T19:41:15.346Z,12.42
2018-05-10T19:43:44.698Z,12.20
2018-05-10T19:46:14.179Z,12.35
2018-05-10T19:48:46.161Z,12.24
2018-05-10T19:51:15.664Z,12.40
2018-05-10T19:53:44.934Z,12.35
2018-05-10T19:56:15.947Z,12.14
2018-05-10T19:58:45.335Z,12.29
2018-05-10T20:01:16.370Z,12.19
2018-05-10T20:03:47.459Z,12.05
2018-05-10T20:06:18.461Z,12.29
2018-05-10T20:08:48.996Z,12.08
2018-05-10T20:11:20.161Z,12.02
2018-05-10T20:13:49.495Z,12.04
2018-05-10T20:16:18.240Z,11.97
2018-05-10T20:18:48.541Z,11.92
2018-05-10T20:21:19.584Z,12.05
2018-05-10T20:23:48.703Z,12.02
2018-05-10T20:26:18.883Z,11.65
2018-05-10T20:28:47.672Z,11.81
2018-05-10T20:31:18.294Z,11.66
2018-05-10T20:33:47.710Z,11.61
2018-05-10T20:36:16.832Z,11.67
2018-05-10T20:38:46.330Z,11.63
2018-05-10T20:41:17.532Z,11.53
2018-05-10T20:43:48.132Z,11.47
2018-05-10T20:46:17.499Z,11.38
2018-05-10T20:48:48.306Z,11.42
2018-05-10T20:51:18.944Z,11.36
2018-05-10T20:53:50.625Z,11.31
2018-05-10T20:56:21.464Z,11.47
2018-05-10T20:58:52.636Z,11.37
2018-05-10T21:01:22.708Z,11.43
2018-05-10T21:03:54.174Z,11.36
2018-05-10T21:06:23.412Z,11.39
2018-05-10T21:08:55.013Z,11.36
2018-05-10T21:11:24.734Z,11.18
2018-05-10T21:13:54.985Z,11.16
2018-05-10T21:16:26.448Z,11.17
2018-05-10T21:18:57.467Z,11.17
2018-05-10T21:21:26.722Z,11.21
2018-05-10T21:23:55.936Z,11.16
2018-05-10T21:26:25.461Z,11.06
2018-05-10T21:28:54.514Z,10.97
2018-05-10T21:31:23.733Z,10.84
2018-05-10T21:33:53.134Z,10.89
2018-05-10T21:36:23.445Z,10.90
2018-05-10T21:38:54.215Z,10.82
2018-05-10T21:41:24.728Z,10.86
2018-05-10T21:43:55.933Z,10.79
2018-05-10T21:46:24.980Z,10.71
2018-05-10T21:48:56.641Z,10.77
2018-05-10T21:51:27.577Z,10.71
2018-05-10T21:53:58.155Z,10.63
2018-05-10T21:56:27.597Z,10.53
2018-05-10T21:58:56.996Z,10.52
2018-05-10T22:01:28.338Z,10.41
2018-05-10T22:04:00.021Z,10.42
2018-05-10T22:06:29.306Z,10.41
2018-05-10T22:09:00.159Z,10.42
2018-05-10T22:11:29.681Z,10.41
2018-05-10T22:13:59.220Z,10.34
2018-05-10T22:16:31.749Z,10.18
2018-05-10T22:19:01.297Z,10.18
2018-05-10T22:21:32.284Z,10.13
2018-05-10T22:24:03.466Z,10.21
2018-05-10T22:26:32.741Z,10.26
2018-05-10T22:29:03.675Z,10.24
2018-05-10T22:31:33.595Z,10.04
2018-05-10T22:34:03.812Z,10.01
2018-05-10T22:36:34.564Z,10.00
2018-05-10T22:39:04.713Z,10.00
2018-05-10T22:41:35.411Z,10.00
2018-05-10T22:44:06.100Z,9.97
2018-05-10T22:46:35.485Z,9.91
2018-05-10T22:49:06.125Z,9.99
2018-05-10T22:51:35.429Z,9.89
2018-05-10T22:54:06.282Z,9.80
2018-05-10T22:56:35.787Z,9.85
2018-05-10T22:59:05.711Z,9.91
2018-05-10T23:01:36.040Z,9.78
2018-05-10T23:04:08.764Z,9.82
2018-05-10T23:06:38.117Z,9.81
2018-05-10T23:09:07.815Z,9.85
2018-05-10T23:11:38.808Z,9.82
2018-05-10T23:14:08.113Z,9.79
2018-05-10T23:16:38.672Z,9.83
2018-05-10T23:19:09.414Z,9.79
2018-05-10T23:21:39.022Z,9.84
2018-05-10T23:24:10.447Z,9.82
2018-05-10T23:26:41.634Z,9.83
2018-05-10T23:29:11.109Z,9.67
2018-05-10T23:31:41.945Z,9.65
2018-05-10T23:34:12.570Z,9.60
2018-05-10T23:36:42.885Z,9.38
2018-05-10T23:39:13.905Z,9.51
2018-05-10T23:41:44.516Z,9.49
2018-05-10T23:44:13.726Z,9.41
2018-05-10T23:46:44.883Z,9.37
2018-05-10T23:49:15.740Z,9.31
2018-05-10T23:51:46.351Z,9.36
2018-05-10T23:54:17.099Z,9.35
2018-05-10T23:56:46.266Z,9.34
2018-05-10T23:59:16.117Z,9.25
